createdAt,value
2019-05-15T00:03:50.201Z,102407.49
2019-05-15T00:08:44.160Z,102401.20
2019-05-15T00:13:38.852Z,102397.61
2019-05-15T00:18:33.205Z,102403.66
2019-05-15T00:23:29.193Z,102396.56
2019-05-15T00:28:23.097Z,102398.23
2019-05-15T00:33:19.169Z,102398.38
2019-05-15T00:38:12.926Z,102397.58
2019-05-15T00:43:08.797Z,102388.66
2019-05-15T00:48:02.977Z,102388.66
2019-05-15T00:52:58.964Z,102382.14
2019-05-15T00:57:52.914Z,102386.77
2019-05-15T01:02:48.697Z,102386.44
2019-05-15T01:07:42.749Z,102377.23
2019-05-15T01:12:38.015Z,102376.72
2019-05-15T01:17:32.075Z,102376.44
2019-05-15T01:22:28.505Z,102371.23
2019-05-15T01:27:22.028Z,102370.16
2019-05-15T01:32:15.960Z,102362.49
2019-05-15T01:37:09.927Z,102358.05
2019-05-15T01:42:03.881Z,102356.16
2019-05-15T01:46:59.010Z,102349.45
2019-05-15T01:51:53.216Z,102344.30
2019-05-15T01:56:49.668Z,102347.33
2019-05-15T02:01:43.744Z,102347.33
2019-05-15T02:06:39.094Z,102347.88
2019-05-15T02:11:33.280Z,102347.08
2019-05-15T02:16:28.665Z,102347.91
2019-05-15T02:21:22.878Z,102340.64
2019-05-15T02:26:18.933Z,102343.36
2019-05-15T02:31:12.773Z,102342.41
2019-05-15T02:36:09.711Z,102349.63
2019-05-15T02:41:02.750Z,102348.05
2019-05-15T02:46:00.078Z,102345.80
2019-05-15T02:50:52.690Z,102341.66
2019-05-15T02:55:49.451Z,102342.09
2019-05-15T03:00:52.292Z,102344.95
2019-05-15T03:05:42.616Z,102346.78
2019-05-15T03:10:39.973Z,102349.89
2019-05-15T03:15:33.128Z,102344.22
2019-05-15T03:20:29.825Z,102351.33
2019-05-15T03:25:23.084Z,102360.00
2019-05-15T03:30:21.728Z,102362.17
2019-05-15T03:35:15.873Z,102361.95
2019-05-15T03:40:11.082Z,102358.14
2019-05-15T03:45:05.128Z,102367.61
2019-05-15T03:50:02.952Z,102369.63
2019-05-15T03:54:58.805Z,102370.02
2019-05-15T03:59:52.800Z,102369.00
2019-05-15T04:04:49.989Z,102364.41
2019-05-15T04:09:42.830Z,102368.77
2019-05-15T04:14:39.440Z,102366.42
2019-05-15T04:19:32.988Z,102369.75
2019-05-15T04:24:30.089Z,102372.22
2019-05-15T04:29:28.747Z,102371.34
2019-05-15T04:34:23.742Z,102370.59
2019-05-15T04:39:19.317Z,102370.04
2019-05-15T04:44:13.567Z,102364.41
2019-05-15T04:49:09.271Z,102360.95
2019-05-15T04:54:03.499Z,102356.55
2019-05-15T04:58:59.980Z,102359.80
2019-05-15T05:03:53.366Z,102359.17
2019-05-15T05:08:49.077Z,102353.44
2019-05-15T05:13:43.319Z,102354.42
2019-05-15T05:18:41.215Z,102360.69
2019-05-15T05:23:33.235Z,102357.73
2019-05-15T05:28:29.014Z,102352.20
2019-05-15T05:33:23.460Z,102347.73
2019-05-15T05:38:19.135Z,102350.41
2019-05-15T05:43:13.488Z,102359.80
2019-05-15T05:48:08.803Z,102355.77
2019-05-15T05:53:04.821Z,102357.14
2019-05-15T05:57:58.781Z,102358.94
2019-05-15T06:02:52.932Z,102356.23
2019-05-15T06:07:48.771Z,102356.23
2019-05-15T06:12:42.813Z,102355.22
2019-05-15T06:17:39.316Z,102352.68
2019-05-15T06:22:32.672Z,102349.48
2019-05-15T06:27:27.992Z,102342.42
2019-05-15T06:32:22.125Z,102346.34
2019-05-15T06:37:16.088Z,102348.10
2019-05-15T06:42:10.072Z,102350.72
2019-05-15T06:47:04.178Z,102347.80
2019-05-15T06:51:58.291Z,102353.45
2019-05-15T06:56:52.370Z,102346.45
2019-05-15T07:01:48.093Z,102344.55
2019-05-15T07:06:42.258Z,102346.65
2019-05-15T07:11:38.637Z,102343.73
2019-05-15T07:16:32.366Z,102344.61
2019-05-15T07:21:28.516Z,102341.95
2019-05-15T07:26:22.427Z,102336.93
2019-05-15T07:31:18.061Z,102329.79
2019-05-15T07:36:12.389Z,102327.22
2019-05-15T07:41:09.745Z,102323.86
2019-05-15T07:46:02.516Z,102324.37
2019-05-15T07:50:56.492Z,102315.78
2019-05-15T07:55:52.375Z,102321.76
2019-05-15T08:00:49.075Z,102315.00
2019-05-15T08:05:54.947Z,102312.24
2019-05-15T08:10:39.692Z,102310.55
2019-05-15T08:15:33.790Z,102305.70
2019-05-15T08:20:28.909Z,102303.45
2019-05-15T08:25:32.404Z,102295.55
2019-05-15T08:30:19.311Z,102292.84
2019-05-15T08:35:13.879Z,102286.09
2019-05-15T08:40:08.723Z,102289.88
2019-05-15T08:45:06.126Z,102268.92
2019-05-15T08:50:00.206Z,102267.85
2019-05-15T08:54:54.281Z,102258.69
2019-05-15T08:59:48.845Z,102249.70
2019-05-15T09:04:42.954Z,102250.83
2019-05-15T09:09:38.322Z,102234.49
2019-05-15T09:14:32.472Z,102234.70
2019-05-15T09:19:28.054Z,102235.95
2019-05-15T09:24:28.780Z,102223.63
2019-05-15T09:29:23.100Z,102217.66
2019-05-15T09:34:18.521Z,102215.17
2019-05-15T09:39:13.569Z,102214.38
2019-05-15T09:44:08.063Z,102200.41
2019-05-15T09:49:02.270Z,102190.43
2019-05-15T09:53:59.419Z,102188.25
2019-05-15T09:58:52.293Z,102185.06
2019-05-15T10:03:48.479Z,102184.34
2019-05-15T10:08:42.148Z,102178.31
2019-05-15T10:13:38.336Z,102174.73
2019-05-15T10:18:32.153Z,102173.92
2019-05-15T10:23:28.869Z,102163.66
2019-05-15T10:28:22.114Z,102162.20
2019-05-15T10:33:19.254Z,102152.92
2019-05-15T10:38:12.264Z,102145.25
2019-05-15T10:43:09.163Z,102146.94
2019-05-15T10:48:04.297Z,102147.98
2019-05-15T10:53:01.083Z,102129.22
2019-05-15T10:57:55.129Z,102121.20
2019-05-15T11:02:51.047Z,102126.71
2019-05-15T11:07:45.141Z,102121.71
2019-05-15T11:12:39.324Z,102118.21
2019-05-15T11:17:33.490Z,102101.53
2019-05-15T11:22:29.849Z,102104.19
2019-05-15T11:27:23.448Z,102093.50
2019-05-15T11:32:19.985Z,102080.69
2019-05-15T11:37:14.207Z,102069.52
2019-05-15T11:42:08.868Z,102067.28
2019-05-15T11:47:06.111Z,102070.03
2019-05-15T11:52:00.798Z,102059.05
2019-05-15T11:56:54.870Z,102052.30
2019-05-15T12:01:49.075Z,102041.40
2019-05-15T12:06:57.974Z,102040.48
2019-05-15T12:11:41.113Z,102041.90
2019-05-15T12:16:36.359Z,102017.73
2019-05-15T12:21:30.983Z,102023.20
2019-05-15T12:26:24.956Z,102022.12
2019-05-15T12:31:24.362Z,102024.58
2019-05-15T12:36:40.977Z,102020.13
2019-05-15T13:00:57.888Z,101987.81
2019-05-15T13:05:52.181Z,101994.27
2019-05-15T13:10:48.635Z,101984.72
2019-05-15T13:15:45.363Z,101986.97
2019-05-15T13:20:41.361Z,101973.25
2019-05-15T13:25:35.487Z,101967.41
2019-05-15T13:30:30.183Z,101962.00
2019-05-15T13:35:24.270Z,101967.90
2019-05-15T13:40:18.844Z,101962.59
2019-05-15T13:45:13.689Z,101961.92
2019-05-15T13:50:08.858Z,101951.77
2019-05-15T13:55:04.561Z,101949.04
2019-05-15T14:00:01.902Z,101944.00
2019-05-15T14:04:58.148Z,101945.34
2019-05-15T14:09:51.840Z,101951.44
2019-05-15T14:14:45.850Z,101941.34
2019-05-15T14:19:39.865Z,101925.80
2019-05-15T14:24:33.874Z,101930.20
2019-05-15T14:29:30.431Z,101921.30
2019-05-15T14:34:24.383Z,101935.61
2019-05-15T14:39:21.064Z,101932.09
2019-05-15T14:44:18.651Z,101932.69
2019-05-15T14:49:11.131Z,101919.25
2019-05-15T14:54:05.109Z,101906.70
2019-05-15T14:58:59.189Z,101897.52
2019-05-15T15:03:53.166Z,101898.64
2019-05-15T15:08:48.736Z,101888.53
2019-05-15T15:13:43.078Z,101878.86
2019-05-15T15:18:38.593Z,101877.87
2019-05-15T15:23:32.925Z,101868.06
2019-05-15T15:28:29.547Z,101875.38
2019-05-15T15:33:23.539Z,101868.32
2019-05-15T15:38:33.254Z,101865.31
2019-05-15T15:43:15.321Z,101863.63
2019-05-15T15:48:09.323Z,101856.24
2019-05-15T15:53:03.489Z,101854.36
2019-05-15T15:57:59.228Z,101857.91
2019-05-15T16:02:53.506Z,101857.11
2019-05-15T16:07:48.542Z,101854.98
2019-05-15T16:12:42.813Z,101851.49
2019-05-15T16:17:38.438Z,101845.68
2019-05-15T16:22:32.939Z,101844.84
2019-05-15T16:27:28.705Z,101827.92
2019-05-15T16:32:22.836Z,101821.02
2019-05-15T16:37:18.774Z,101828.33
2019-05-15T16:42:12.821Z,101828.25
2019-05-15T16:47:08.480Z,101832.97
2019-05-15T16:52:02.734Z,101832.14
2019-05-15T16:56:58.829Z,101841.38
2019-05-15T17:01:52.850Z,101827.59
2019-05-15T17:06:49.172Z,101828.95
2019-05-15T17:11:42.811Z,101828.25
2019-05-15T17:16:38.703Z,101835.22
2019-05-15T17:21:33.120Z,101839.85
2019-05-15T17:26:28.806Z,101843.19
2019-05-15T17:31:23.005Z,101841.50
2019-05-15T17:36:18.561Z,101839.08
2019-05-15T17:41:12.888Z,101839.06
2019-05-15T17:46:08.854Z,101845.85
2019-05-15T17:51:06.027Z,101850.17
2019-05-15T17:56:01.299Z,101841.98
2019-05-15T18:00:55.476Z,101841.83
2019-05-15T18:05:49.669Z,101851.23
2019-05-15T18:10:44.198Z,101845.91
2019-05-15T18:15:38.817Z,101852.19
2019-05-15T18:20:32.961Z,101852.83
2019-05-15T18:25:27.016Z,101854.11
2019-05-15T18:30:23.224Z,101859.81
2019-05-15T18:35:18.782Z,101853.27
2019-05-15T18:40:15.901Z,101857.63
2019-05-15T18:45:09.952Z,101853.08
2019-05-15T18:50:08.750Z,101852.91
2019-05-15T18:55:01.458Z,101856.90
2019-05-15T18:59:57.896Z,101858.89
2019-05-15T19:04:51.673Z,101864.25
2019-05-15T19:09:47.893Z,101861.28
2019-05-15T19:14:41.719Z,101862.84
2019-05-15T19:19:35.811Z,101852.91
2019-05-15T19:24:29.810Z,101855.56
2019-05-15T19:29:23.854Z,101856.19
2019-05-15T19:34:19.004Z,101857.48
2019-05-15T19:39:13.095Z,101855.00
2019-05-15T19:44:08.746Z,101854.41
2019-05-15T19:49:03.207Z,101863.13
2019-05-15T19:53:58.647Z,101856.06
2019-05-15T19:58:52.916Z,101855.14
2019-05-15T20:03:50.676Z,101855.07
2019-05-15T20:08:43.509Z,101835.55
2019-05-15T20:13:38.394Z,101843.13
2019-05-15T20:18:32.658Z,101849.78
2019-05-15T20:23:28.731Z,101855.23
2019-05-15T20:28:22.728Z,101849.38
2019-05-15T20:33:17.986Z,101857.42
2019-05-15T20:38:12.240Z,101848.31
2019-05-15T20:43:08.212Z,101850.33
2019-05-15T20:48:02.239Z,101858.36
2019-05-15T20:52:58.761Z,101857.95
2019-05-15T20:57:52.292Z,101842.50
2019-05-15T21:02:48.508Z,101843.06
2019-05-15T21:07:43.439Z,101838.35
2019-05-15T21:12:40.525Z,101834.82
2019-05-15T21:17:33.459Z,101838.96
2019-05-15T21:22:28.436Z,101839.62
2019-05-15T21:27:24.327Z,101830.84
2019-05-15T21:32:19.642Z,101831.82
2019-05-15T21:37:13.931Z,101827.77
2019-05-15T21:42:09.169Z,101827.97
2019-05-15T21:47:03.401Z,101831.55
2019-05-15T21:51:59.271Z,101831.45
2019-05-15T21:57:06.791Z,101830.77
2019-05-15T22:01:49.358Z,101829.97
2019-05-15T22:06:43.318Z,101828.08
2019-05-15T22:11:39.547Z,101825.91
2019-05-15T22:16:33.256Z,101829.41
2019-05-15T22:21:27.267Z,101828.69
2019-05-15T22:26:21.688Z,101821.13
2019-05-15T22:31:15.964Z,101825.91
2019-05-15T22:36:12.373Z,101821.81
2019-05-15T22:41:10.147Z,101814.02
2019-05-15T22:46:02.743Z,101809.64
2019-05-15T22:50:58.322Z,101802.89
2019-05-15T22:55:52.573Z,101808.59
2019-05-15T23:00:48.956Z,101806.45
2019-05-15T23:05:42.568Z,101797.03
2019-05-15T23:10:38.433Z,101809.12
2019-05-15T23:15:32.486Z,101801.22
2019-05-15T23:20:28.632Z,101796.89
2019-05-15T23:25:22.324Z,101795.78
2019-05-15T23:30:18.701Z,101788.59
2019-05-15T23:35:13.306Z,101780.27
2019-05-15T23:40:08.853Z,101784.83
2019-05-15T23:45:04.933Z,101784.55
2019-05-15T23:50:00.928Z,101780.85
2019-05-15T23:54:54.888Z,101771.91
2019-05-15T23:59:50.182Z,101768.77
